Time;durP1;ratioP1;P1;durP2;ratioP2;P2;SDS_P1;SDS_P2;PMS_P1;PMS_P2;Temp;Humidity;BMP_temperature;BMP_pressure;BME280_temperature;BME280_humidity;BME280_pressure;Samples;Min_cycle;Max_cycle;Signal;HPM_P1;HPM_P2
2021/03/09 00:00:29;;;;;;;16.30;10.57;;;;;;;;;;5078284;28;20279;-71
2021/03/09 00:02:56;;;;;;;17.47;10.50;;;;;;;;;;5079742;28;20289;-71
2021/03/09 00:05:25;;;;;;;17.30;10.77;;;;;;;;;;5080920;28;20317;-71
2021/03/09 00:07:52;;;;;;;14.97;10.30;;;;;;;;;;5079344;28;20320;-69
2021/03/09 00:10:19;;;;;;;16.97;10.53;;;;;;;;;;5077819;28;20683;-70
2021/03/09 00:12:46;;;;;;;15.20;9.67;;;;;;;;;;5078538;28;20339;-70
2021/03/09 00:15:13;;;;;;;14.10;10.63;;;;;;;;;;5077800;28;20309;-70
2021/03/09 00:17:40;;;;;;;16.87;11.07;;;;;;;;;;5078346;28;20205;-69
2021/03/09 00:20:08;;;;;;;16.00;10.90;;;;;;;;;;5077889;28;20788;-69
2021/03/09 00:22:36;;;;;;;18.97;10.70;;;;;;;;;;5078159;28;20241;-69
2021/03/09 00:25:03;;;;;;;18.43;11.10;;;;;;;;;;5077731;28;20284;-69
2021/03/09 00:27:30;;;;;;;16.13;10.27;;;;;;;;;;5089836;28;20244;-71
2021/03/09 00:29:57;;;;;;;19.07;11.37;;;;;;;;;;5097897;28;20205;-71
2021/03/09 00:32:24;;;;;;;15.33;10.57;;;;;;;;;;5098046;28;20233;-71
2021/03/09 00:34:51;;;;;;;15.40;10.77;;;;;;;;;;5092378;28;20226;-70
2021/03/09 00:37:18;;;;;;;15.20;10.27;;;;;;;;;;5077709;28;20708;-70
2021/03/09 00:39:47;;;;;;;18.63;10.97;;;;;;;;;;5077234;28;20313;-70
2021/03/09 00:42:14;;;;;;;16.13;11.20;;;;;;;;;;5077794;28;20261;-70
2021/03/09 00:44:41;;;;;;;14.07;10.30;;;;;;;;;;5077582;28;20260;-71
2021/03/09 00:47:08;;;;;;;15.80;10.07;;;;;;;;;;5080910;28;20206;-71
2021/03/09 00:49:35;;;;;;;14.90;10.87;;;;;;;;;;5078985;28;20217;-71
2021/03/09 00:52:02;;;;;;;15.17;10.50;;;;;;;;;;5078450;28;20210;-71
2021/03/09 00:54:29;;;;;;;18.53;10.90;;;;;;;;;;5077518;28;20318;-71
2021/03/09 00:56:58;;;;;;;15.80;11.07;;;;;;;;;;5077559;28;20202;-71
2021/03/09 00:59:25;;;;;;;15.17;9.30;;;;;;;;;;5077765;28;20270;-71
2021/03/09 01:01:52;;;;;;;15.10;10.73;;;;;;;;;;5077576;28;20313;-71
2021/03/09 01:04:19;;;;;;;15.97;10.50;;;;;;;;;;5077642;28;20222;-71
2021/03/09 01:06:46;;;;;;;16.60;10.13;;;;;;;;;;5077283;28;20765;-71
2021/03/09 01:09:13;;;;;;;14.97;9.90;;;;;;;;;;5077170;28;20555;-71
2021/03/09 01:11:40;;;;;;;12.90;10.07;;;;;;;;;;5077423;28;20290;-71
2021/03/09 01:14:08;;;;;;;15.00;9.67;;;;;;;;;;5077572;28;20238;-71
2021/03/09 01:16:35;;;;;;;15.70;10.10;;;;;;;;;;5077263;28;20653;-71
2021/03/09 01:19:03;;;;;;;13.77;9.97;;;;;;;;;;5077324;28;20229;-71
2021/03/09 01:21:30;;;;;;;14.40;10.17;;;;;;;;;;5079403;28;20238;-70
2021/03/09 01:23:57;;;;;;;17.20;10.73;;;;;;;;;;5080834;28;20229;-71
2021/03/09 01:26:24;;;;;;;15.00;11.30;;;;;;;;;;5083355;28;20300;-70
2021/03/09 01:28:51;;;;;;;12.87;9.50;;;;;;;;;;5101422;28;20205;-71
2021/03/09 01:31:19;;;;;;;15.70;10.23;;;;;;;;;;5101447;28;20242;-70
2021/03/09 01:33:46;;;;;;;16.37;10.87;;;;;;;;;;5102206;28;20201;-71
2021/03/09 01:36:13;;;;;;;17.03;10.07;;;;;;;;;;5085940;28;20296;-71
2021/03/09 01:38:40;;;;;;;12.83;10.23;;;;;;;;;;5081401;28;20265;-70
2021/03/09 01:41:07;;;;;;;14.03;9.63;;;;;;;;;;5080633;28;20764;-71
2021/03/09 01:43:34;;;;;;;12.83;9.83;;;;;;;;;;5080859;28;20214;-70
2021/03/09 01:46:01;;;;;;;13.40;9.77;;;;;;;;;;5084251;28;20222;-71
2021/03/09 01:48:46;;;;;;;15.17;9.47;;;;;;;;;;5080918;28;20216;-70
2021/03/09 01:51:14;;;;;;;15.53;9.73;;;;;;;;;;5080900;28;20198;-71
2021/03/09 01:53:41;;;;;;;14.33;10.07;;;;;;;;;;5080502;28;20236;-70
2021/03/09 01:56:08;;;;;;;13.73;9.17;;;;;;;;;;5080373;28;20232;-71
2021/03/09 01:58:37;;;;;;;13.93;9.27;;;;;;;;;;5080672;28;20293;-70
2021/03/09 02:01:04;;;;;;;15.20;10.37;;;;;;;;;;5080941;28;20230;-71
2021/03/09 02:03:31;;;;;;;15.47;9.97;;;;;;;;;;5080605;28;20288;-71
2021/03/09 02:06:00;;;;;;;14.80;9.73;;;;;;;;;;5080244;28;20735;-71
2021/03/09 02:08:27;;;;;;;12.33;9.57;;;;;;;;;;5080313;28;20275;-71
2021/03/09 02:10:54;;;;;;;15.40;9.80;;;;;;;;;;5080370;28;20611;-71
2021/03/09 02:13:31;;;;;;;14.33;9.70;;;;;;;;;;5080341;28;20202;-71
2021/03/09 02:15:59;;;;;;;15.97;10.30;;;;;;;;;;5080225;28;20592;-71
2021/03/09 02:18:31;;;;;;;16.30;10.60;;;;;;;;;;5080502;28;20233;-71
2021/03/09 02:21:16;;;;;;;14.90;9.90;;;;;;;;;;5080765;28;20233;-71
2021/03/09 02:24:03;;;;;;;15.17;10.00;;;;;;;;;;5080845;28;20740;-71
2021/03/09 02:26:33;;;;;;;14.30;9.23;;;;;;;;;;5083539;28;20225;-71
2021/03/09 02:29:11;;;;;;;14.43;10.07;;;;;;;;;;5100516;28;20293;-71
2021/03/09 02:31:41;;;;;;;15.50;10.67;;;;;;;;;;5100025;28;20266;-70
2021/03/09 02:34:09;;;;;;;13.70;9.57;;;;;;;;;;5099981;28;20208;-71
2021/03/09 02:36:37;;;;;;;13.97;9.77;;;;;;;;;;5080205;28;20244;-71
2021/03/09 02:39:05;;;;;;;16.20;9.80;;;;;;;;;;5079244;28;20240;-71
2021/03/09 02:41:33;;;;;;;15.17;9.07;;;;;;;;;;5079502;28;20660;-71
2021/03/09 02:44:00;;;;;;;13.73;9.77;;;;;;;;;;5079444;28;20727;-70
2021/03/09 02:46:28;;;;;;;13.67;8.43;;;;;;;;;;5083208;28;20290;-71
2021/03/09 02:48:58;;;;;;;15.23;10.10;;;;;;;;;;5079355;28;20677;-70
2021/03/09 02:51:26;;;;;;;13.77;9.47;;;;;;;;;;5079753;28;20236;-71
2021/03/09 02:53:55;;;;;;;16.07;10.07;;;;;;;;;;5079184;28;20233;-71
2021/03/09 02:56:23;;;;;;;14.87;10.60;;;;;;;;;;5079519;28;20293;-71
2021/03/09 02:58:50;;;;;;;18.70;11.33;;;;;;;;;;5079691;28;20294;-71
2021/03/09 03:01:18;;;;;;;14.83;9.53;;;;;;;;;;5079354;28;20723;-71
2021/03/09 03:03:46;;;;;;;13.97;9.73;;;;;;;;;;5079423;28;20259;-71
2021/03/09 03:06:16;;;;;;;19.37;11.00;;;;;;;;;;5079916;28;20262;-70
2021/03/09 03:08:44;;;;;;;15.27;9.90;;;;;;;;;;5081704;28;20250;-70
2021/03/09 03:11:12;;;;;;;15.13;10.00;;;;;;;;;;5080140;28;20241;-71
2021/03/09 03:13:39;;;;;;;14.10;9.93;;;;;;;;;;5079186;28;20685;-71
2021/03/09 03:16:07;;;;;;;13.77;10.17;;;;;;;;;;5079278;28;20321;-71
2021/03/09 03:18:37;;;;;;;15.70;10.63;;;;;;;;;;5079121;28;20210;-70
2021/03/09 03:21:04;;;;;;;17.90;10.93;;;;;;;;;;5078883;28;20261;-71
2021/03/09 03:23:33;;;;;;;15.93;9.97;;;;;;;;;;5078879;28;20285;-71
2021/03/09 03:26:04;;;;;;;14.40;9.70;;;;;;;;;;5079065;28;20261;-71
2021/03/09 03:28:33;;;;;;;16.90;11.13;;;;;;;;;;5078827;28;20680;-71
2021/03/09 03:31:01;;;;;;;16.10;10.20;;;;;;;;;;5078700;28;20285;-71
2021/03/09 03:33:28;;;;;;;18.10;9.93;;;;;;;;;;5078968;28;20290;-70
2021/03/09 03:36:03;;;;;;;14.87;9.77;;;;;;;;;;5079608;28;20788;-71
2021/03/09 03:38:32;;;;;;;16.40;9.73;;;;;;;;;;5078645;28;20280;-71
2021/03/09 03:40:59;;;;;;;15.77;9.50;;;;;;;;;;5078659;28;20253;-71
2021/03/09 03:43:26;;;;;;;14.67;9.33;;;;;;;;;;5077768;28;20289;-70
2021/03/09 03:45:53;;;;;;;14.80;10.33;;;;;;;;;;5082223;28;20261;-71
2021/03/09 03:48:21;;;;;;;13.23;9.73;;;;;;;;;;5078956;28;20216;-71
2021/03/09 03:50:49;;;;;;;17.70;11.00;;;;;;;;;;5078714;28;20648;-70
2021/03/09 03:53:18;;;;;;;14.17;9.53;;;;;;;;;;5078643;28;20250;-71
2021/03/09 03:55:53;;;;;;;13.43;10.03;;;;;;;;;;5078496;28;20250;-72
2021/03/09 03:58:23;;;;;;;13.37;10.17;;;;;;;;;;5078350;28;20237;-71
2021/03/09 04:00:52;;;;;;;14.53;10.07;;;;;;;;;;5078068;28;20262;-71
2021/03/09 04:03:19;;;;;;;16.10;10.07;;;;;;;;;;5078357;28;20247;-71
2021/03/09 04:05:48;;;;;;;16.53;10.83;;;;;;;;;;5078223;28;20308;-71
2021/03/09 04:08:15;;;;;;;16.10;10.83;;;;;;;;;;5078017;28;20289;-71
2021/03/09 04:10:43;;;;;;;15.27;10.10;;;;;;;;;;5078018;28;20293;-71
2021/03/09 04:13:12;;;;;;;21.70;10.30;;;;;;;;;;5078108;28;20210;-71
2021/03/09 04:15:39;;;;;;;15.33;9.93;;;;;;;;;;5077955;28;20230;-71
2021/03/09 04:18:07;;;;;;;17.37;10.30;;;;;;;;;;5078068;28;20289;-71
2021/03/09 04:20:38;;;;;;;19.97;10.73;;;;;;;;;;5078093;28;20256;-71
2021/03/09 04:23:06;;;;;;;16.60;10.50;;;;;;;;;;5077803;28;20244;-71
2021/03/09 04:25:34;;;;;;;14.63;9.87;;;;;;;;;;5078013;28;20316;-71
2021/03/09 04:28:02;;;;;;;15.63;9.60;;;;;;;;;;5094068;28;20205;-71
2021/03/09 04:30:31;;;;;;;19.40;10.17;;;;;;;;;;5098281;28;20271;-71
2021/03/09 04:32:58;;;;;;;20.10;10.50;;;;;;;;;;5097972;28;20292;-71
2021/03/09 04:35:26;;;;;;;16.27;10.20;;;;;;;;;;5087671;28;20222;-71
2021/03/09 04:37:53;;;;;;;14.37;9.53;;;;;;;;;;5077692;28;20277;-71
2021/03/09 04:40:20;;;;;;;15.37;10.27;;;;;;;;;;5078401;28;20734;-71
2021/03/09 04:42:48;;;;;;;14.97;9.80;;;;;;;;;;5078197;28;20264;-71
2021/03/09 04:45:15;;;;;;;15.30;9.87;;;;;;;;;;5078465;28;20279;-71
2021/03/09 04:47:43;;;;;;;16.50;9.80;;;;;;;;;;5079906;28;20210;-71
2021/03/09 04:50:13;;;;;;;15.83;10.30;;;;;;;;;;5077803;28;20264;-71
2021/03/09 04:52:40;;;;;;;15.40;9.47;;;;;;;;;;5077600;28;20198;-71
2021/03/09 04:55:08;;;;;;;15.17;10.00;;;;;;;;;;5078850;28;20226;-71
2021/03/09 04:57:37;;;;;;;14.83;9.47;;;;;;;;;;5081526;28;20544;-71
2021/03/09 05:00:05;;;;;;;16.60;9.40;;;;;;;;;;5081710;28;20198;-71
2021/03/09 05:02:33;;;;;;;15.10;9.27;;;;;;;;;;5081369;28;20313;-71
2021/03/09 05:05:01;;;;;;;14.27;9.73;;;;;;;;;;5081505;28;20226;-71
2021/03/09 05:07:28;;;;;;;13.77;9.57;;;;;;;;;;5088207;28;20656;-71
2021/03/09 05:09:55;;;;;;;17.13;10.87;;;;;;;;;;5101683;28;20243;-70
2021/03/09 05:12:22;;;;;;;16.80;9.73;;;;;;;;;;5101539;28;20205;-71
2021/03/09 05:14:49;;;;;;;15.90;9.40;;;;;;;;;;5101689;28;20221;-71
2021/03/09 05:17:16;;;;;;;14.60;10.03;;;;;;;;;;5101545;28;20205;-71
2021/03/09 05:19:43;;;;;;;14.03;9.13;;;;;;;;;;5098116;28;20205;-71
2021/03/09 05:22:12;;;;;;;15.80;9.77;;;;;;;;;;5101232;28;20226;-71
2021/03/09 05:24:39;;;;;;;16.70;10.83;;;;;;;;;;5101195;28;20217;-71
2021/03/09 05:27:06;;;;;;;17.00;10.27;;;;;;;;;;5101240;28;20289;-71
2021/03/09 05:29:33;;;;;;;19.43;10.43;;;;;;;;;;5101450;28;20313;-71
2021/03/09 05:32:00;;;;;;;13.50;8.67;;;;;;;;;;5101324;28;20280;-71
2021/03/09 05:34:27;;;;;;;16.93;10.53;;;;;;;;;;5098418;28;20711;-71
2021/03/09 05:36:55;;;;;;;18.13;10.30;;;;;;;;;;5095154;28;20205;-71
2021/03/09 05:39:23;;;;;;;17.10;10.17;;;;;;;;;;5086353;28;20312;-71
2021/03/09 05:41:50;;;;;;;14.37;9.80;;;;;;;;;;5101082;28;20221;-71
2021/03/09 05:44:17;;;;;;;13.33;9.37;;;;;;;;;;5100867;28;20284;-70
2021/03/09 05:46:44;;;;;;;16.70;10.70;;;;;;;;;;5091018;28;20650;-71
2021/03/09 05:49:12;;;;;;;15.77;10.37;;;;;;;;;;5080473;28;20210;-71
2021/03/09 05:51:49;;;;;;;19.73;10.13;;;;;;;;;;5080947;28;20198;-71
2021/03/09 05:54:16;;;;;;;14.00;9.40;;;;;;;;;;5080168;28;20776;-71
2021/03/09 05:56:44;;;;;;;14.57;9.63;;;;;;;;;;5080660;28;20274;-71
2021/03/09 05:59:11;;;;;;;13.73;8.90;;;;;;;;;;5080709;28;20228;-71
2021/03/09 06:01:38;;;;;;;17.17;9.53;;;;;;;;;;5080378;28;20232;-70
2021/03/09 06:04:06;;;;;;;17.93;10.10;;;;;;;;;;5080258;28;20576;-71
2021/03/09 06:06:33;;;;;;;13.10;9.23;;;;;;;;;;5079852;28;20211;-71
2021/03/09 06:09:01;;;;;;;18.70;10.47;;;;;;;;;;5080042;28;20210;-70
2021/03/09 06:11:28;;;;;;;16.93;9.90;;;;;;;;;;5080297;28;20206;-71
2021/03/09 06:13:55;;;;;;;18.40;9.97;;;;;;;;;;5086873;28;20227;-71
2021/03/09 06:16:22;;;;;;;16.20;9.33;;;;;;;;;;5100406;28;20676;-70
2021/03/09 06:18:54;;;;;;;15.20;9.70;;;;;;;;;;5100299;28;20218;-70
2021/03/09 06:21:21;;;;;;;18.17;10.03;;;;;;;;;;5100454;28;20264;-71
2021/03/09 06:23:48;;;;;;;12.90;9.67;;;;;;;;;;5099795;28;20207;-71
2021/03/09 06:26:42;;;;;;;16.57;10.53;;;;;;;;;;5099503;28;20259;-71
2021/03/09 06:29:11;;;;;;;16.30;8.83;;;;;;;;;;5057965;28;20205;-70
2021/03/09 06:31:39;;;;;;;15.93;9.40;;;;;;;;;;5089210;28;20633;-71
2021/03/09 06:34:25;;;;;;;14.87;9.67;;;;;;;;;;5089530;28;20198;-71
2021/03/09 06:37:10;;;;;;;14.93;9.40;;;;;;;;;;5090065;28;20267;-70
2021/03/09 06:39:47;;;;;;;15.97;10.27;;;;;;;;;;5078806;28;20264;-70
2021/03/09 06:42:20;;;;;;;16.87;9.20;;;;;;;;;;5085712;28;20226;-70
2021/03/09 06:44:53;;;;;;;15.33;9.20;;;;;;;;;;5086813;28;20340;-71
2021/03/09 06:47:31;;;;;;;18.17;9.70;;;;;;;;;;5090367;28;20879;-71
2021/03/09 06:49:59;;;;;;;18.27;10.67;;;;;;;;;;5087079;28;20197;-71
2021/03/09 06:52:27;;;;;;;16.47;9.57;;;;;;;;;;5086011;28;20723;-71
2021/03/09 06:54:55;;;;;;;15.83;9.90;;;;;;;;;;5088950;28;20222;-71
2021/03/09 06:57:22;;;;;;;13.50;9.10;;;;;;;;;;5086588;28;20202;-71
2021/03/09 06:59:51;;;;;;;18.20;9.77;;;;;;;;;;5087665;28;20277;-71
2021/03/09 07:02:20;;;;;;;13.23;9.87;;;;;;;;;;5084548;28;20279;-71
2021/03/09 07:04:48;;;;;;;16.07;9.43;;;;;;;;;;5086916;28;20221;-71
2021/03/09 07:07:15;;;;;;;15.70;9.77;;;;;;;;;;5085848;28;20710;-72
2021/03/09 07:09:52;;;;;;;13.90;9.33;;;;;;;;;;5086331;28;20232;-72
2021/03/09 07:12:19;;;;;;;18.93;8.93;;;;;;;;;;5078263;28;20190;-71
2021/03/09 07:14:47;;;;;;;17.77;9.60;;;;;;;;;;5084788;28;20304;-71
2021/03/09 07:17:15;;;;;;;16.23;9.87;;;;;;;;;;5086823;28;20310;-71
2021/03/09 07:19:44;;;;;;;14.37;9.80;;;;;;;;;;5086812;28;20194;-71
2021/03/09 07:22:13;;;;;;;15.17;9.20;;;;;;;;;;5087961;28;20573;-70
2021/03/09 07:24:46;;;;;;;14.20;8.57;;;;;;;;;;5088095;28;20267;-69
2021/03/09 07:27:17;;;;;;;15.60;8.80;;;;;;;;;;5088444;28;20201;-72
2021/03/09 07:29:48;;;;;;;14.53;9.30;;;;;;;;;;5091859;28;20622;-72
2021/03/09 07:32:16;;;;;;;17.97;9.73;;;;;;;;;;5085456;28;20277;-72
2021/03/09 07:34:45;;;;;;;14.63;8.40;;;;;;;;;;5096579;28;20226;-70
2021/03/09 07:37:12;;;;;;;13.83;8.50;;;;;;;;;;5082203;28;20229;-69
2021/03/09 07:39:40;;;;;;;13.30;9.07;;;;;;;;;;5081309;28;20288;-70
2021/03/09 07:42:08;;;;;;;15.33;9.83;;;;;;;;;;5081531;28;20230;-70
2021/03/09 07:44:36;;;;;;;14.70;9.77;;;;;;;;;;5078265;28;20258;-71
2021/03/09 07:47:05;;;;;;;16.87;9.83;;;;;;;;;;5092468;28;20677;-70
2021/03/09 07:49:31;;;;;;;13.90;9.27;;;;;;;;;;5096099;28;20204;-71
2021/03/09 07:52:15;;;;;;;13.80;8.83;;;;;;;;;;5098580;28;20237;-71
2021/03/09 07:54:57;;;;;;;13.13;9.47;;;;;;;;;;5098318;28;20229;-70
2021/03/09 07:57:23;;;;;;;17.50;10.03;;;;;;;;;;5098402;28;20209;-71
2021/03/09 07:59:57;;;;;;;16.23;9.60;;;;;;;;;;5098787;28;20241;-71
2021/03/09 08:02:39;;;;;;;20.00;10.13;;;;;;;;;;5098683;28;20587;-71
2021/03/09 08:05:06;;;;;;;14.57;9.00;;;;;;;;;;5086775;28;20222;-71
2021/03/09 08:07:46;;;;;;;18.00;10.20;;;;;;;;;;5091496;28;20640;-70
2021/03/09 08:10:28;;;;;;;14.63;9.10;;;;;;;;;;5088105;28;20224;-70
2021/03/09 08:12:54;;;;;;;14.57;9.10;;;;;;;;;;5086515;28;20200;-70
2021/03/09 08:15:21;;;;;;;13.63;9.40;;;;;;;;;;5084170;28;20218;-70
2021/03/09 08:17:49;;;;;;;15.67;9.97;;;;;;;;;;5084391;28;20738;-70
2021/03/09 08:20:31;;;;;;;17.40;9.90;;;;;;;;;;5085631;28;20202;-70
2021/03/09 08:23:39;;;;;;;15.17;9.50;;;;;;;;;;5077636;28;20220;-70
2021/03/09 08:26:08;;;;;;;14.77;9.60;;;;;;;;;;5083036;28;20218;-70
2021/03/09 08:28:51;;;;;;;14.40;9.70;;;;;;;;;;5082445;28;20715;-70
2021/03/09 08:31:26;;;;;;;14.77;9.90;;;;;;;;;;5087160;28;20654;-70
2021/03/09 08:34:14;;;;;;;14.83;9.60;;;;;;;;;;5092308;28;20687;-70
2021/03/09 08:36:41;;;;;;;14.70;9.80;;;;;;;;;;5081757;28;20222;-70
2021/03/09 08:39:12;;;;;;;14.07;9.07;;;;;;;;;;5085862;28;20230;-70
2021/03/09 08:41:55;;;;;;;15.60;10.53;;;;;;;;;;5080227;28;20267;-70
2021/03/09 08:44:22;;;;;;;17.10;9.67;;;;;;;;;;5077272;28;20226;-70
2021/03/09 08:46:54;;;;;;;13.87;9.93;;;;;;;;;;5084480;28;20202;-70
2021/03/09 08:49:40;;;;;;;16.50;10.50;;;;;;;;;;5092252;28;20205;-70
2021/03/09 08:52:08;;;;;;;16.07;10.13;;;;;;;;;;5080627;28;20202;-70
2021/03/09 08:54:38;;;;;;;15.53;9.80;;;;;;;;;;5095354;28;20320;-71
2021/03/09 08:57:07;;;;;;;17.90;10.90;;;;;;;;;;5097487;28;20284;-71
2021/03/09 08:59:34;;;;;;;17.20;10.97;;;;;;;;;;5084812;28;20244;-70
2021/03/09 09:02:06;;;;;;;19.33;10.97;;;;;;;;;;5091525;28;20727;-69
2021/03/09 09:04:33;;;;;;;16.00;10.60;;;;;;;;;;5095969;28;20604;-69
2021/03/09 09:07:01;;;;;;;17.83;10.03;;;;;;;;;;5097720;28;20271;-69
2021/03/09 09:09:31;;;;;;;17.60;11.30;;;;;;;;;;5080978;28;20233;-70
2021/03/09 09:12:18;;;;;;;19.33;11.97;;;;;;;;;;5091229;28;20686;-68
2021/03/09 09:14:45;;;;;;;18.73;11.57;;;;;;;;;;5093059;28;20305;-69
2021/03/09 09:17:12;;;;;;;18.87;11.03;;;;;;;;;;5082885;28;20669;-70
2021/03/09 09:19:40;;;;;;;20.40;11.37;;;;;;;;;;5097374;28;20700;-70
2021/03/09 09:22:07;;;;;;;16.50;10.97;;;;;;;;;;5096693;28;20253;-70
2021/03/09 09:24:34;;;;;;;19.13;11.53;;;;;;;;;;5076484;28;20222;-70
2021/03/09 09:27:03;;;;;;;19.03;11.83;;;;;;;;;;5076980;28;20214;-71
2021/03/09 09:29:33;;;;;;;18.07;11.37;;;;;;;;;;5090334;28;20198;-71
2021/03/09 09:32:01;;;;;;;19.73;11.00;;;;;;;;;;5095830;28;20194;-71
2021/03/09 09:34:35;;;;;;;17.70;10.57;;;;;;;;;;5086301;28;20217;-69
2021/03/09 09:37:09;;;;;;;17.13;10.60;;;;;;;;;;5085815;28;20258;-69
2021/03/09 09:39:36;;;;;;;17.50;11.40;;;;;;;;;;5084611;28;20225;-68
2021/03/09 09:42:04;;;;;;;19.03;10.90;;;;;;;;;;5086257;28;20226;-70
2021/03/09 09:44:31;;;;;;;16.67;10.40;;;;;;;;;;5088665;28;20653;-70
2021/03/09 09:46:59;;;;;;;18.07;11.03;;;;;;;;;;5088018;28;20543;-70
2021/03/09 09:49:26;;;;;;;15.90;10.73;;;;;;;;;;5088510;28;20198;-70
2021/03/09 09:51:53;;;;;;;14.60;10.10;;;;;;;;;;5087843;28;20205;-69
2021/03/09 09:54:20;;;;;;;17.10;10.70;;;;;;;;;;5088568;28;20267;-70
2021/03/09 09:56:48;;;;;;;15.90;10.93;;;;;;;;;;5082829;28;20202;-69
2021/03/09 09:59:26;;;;;;;19.50;10.43;;;;;;;;;;5083267;28;20610;-71
2021/03/09 10:01:53;;;;;;;16.03;10.60;;;;;;;;;;5088598;28;20213;-71
2021/03/09 10:04:21;;;;;;;16.07;10.37;;;;;;;;;;5089554;28;20870;-72
2021/03/09 10:06:49;;;;;;;18.27;11.73;;;;;;;;;;5086217;28;20204;-71
2021/03/09 10:09:18;;;;;;;16.73;11.27;;;;;;;;;;5083316;28;20202;-72
2021/03/09 10:11:45;;;;;;;17.70;10.50;;;;;;;;;;5080573;28;20209;-72
2021/03/09 10:14:12;;;;;;;17.53;10.70;;;;;;;;;;5090751;28;20198;-72
2021/03/09 10:16:41;;;;;;;19.33;11.60;;;;;;;;;;5086065;28;20206;-71
2021/03/09 10:19:08;;;;;;;16.93;10.77;;;;;;;;;;5079650;28;20198;-71
2021/03/09 10:21:37;;;;;;;15.83;10.77;;;;;;;;;;5086892;28;20696;-71
2021/03/09 10:24:06;;;;;;;20.20;11.07;;;;;;;;;;5082364;28;20229;-71
2021/03/09 10:26:35;;;;;;;20.13;11.60;;;;;;;;;;5080279;28;20252;-71
2021/03/09 10:29:03;;;;;;;23.63;11.93;;;;;;;;;;5079638;28;20282;-71
2021/03/09 10:31:45;;;;;;;16.20;11.30;;;;;;;;;;5079940;28;20294;-71
2021/03/09 10:34:13;;;;;;;15.10;10.47;;;;;;;;;;5094633;28;20206;-71
2021/03/09 10:36:50;;;;;;;16.47;11.20;;;;;;;;;;5097021;28;20245;-71
2021/03/09 10:39:17;;;;;;;15.83;11.73;;;;;;;;;;5099431;28;20229;-71
2021/03/09 10:41:44;;;;;;;17.33;12.03;;;;;;;;;;5098791;28;20292;-71
2021/03/09 10:44:31;;;;;;;20.03;11.50;;;;;;;;;;5097666;28;20640;-71
2021/03/09 10:47:00;;;;;;;18.00;11.47;;;;;;;;;;5091533;28;20202;-71
2021/03/09 10:49:28;;;;;;;19.50;11.53;;;;;;;;;;5079467;28;20236;-71
2021/03/09 10:51:56;;;;;;;18.17;11.23;;;;;;;;;;5096252;28;20284;-70
2021/03/09 10:54:23;;;;;;;19.20;12.57;;;;;;;;;;5096764;28;20253;-70
2021/03/09 10:56:50;;;;;;;14.83;10.80;;;;;;;;;;5085635;28;20261;-70
2021/03/09 10:59:17;;;;;;;16.20;11.20;;;;;;;;;;5087628;28;20220;-70
2021/03/09 11:01:44;;;;;;;17.77;11.57;;;;;;;;;;5087017;28;20233;-70
2021/03/09 11:04:12;;;;;;;15.77;10.87;;;;;;;;;;5087293;28;20201;-70
2021/03/09 11:06:39;;;;;;;19.57;12.43;;;;;;;;;;5087155;28;20228;-71
2021/03/09 11:09:06;;;;;;;17.53;11.07;;;;;;;;;;5087227;28;20258;-70
2021/03/09 11:11:35;;;;;;;15.10;9.93;;;;;;;;;;5087592;28;20280;-70
2021/03/09 11:14:02;;;;;;;15.73;10.93;;;;;;;;;;5086708;28;20236;-70
2021/03/09 11:16:30;;;;;;;16.97;11.43;;;;;;;;;;5084434;28;20233;-70
2021/03/09 11:19:00;;;;;;;17.23;11.77;;;;;;;;;;5086717;28;20193;-70
2021/03/09 11:21:28;;;;;;;17.90;10.70;;;;;;;;;;5085292;28;20230;-70
2021/03/09 11:23:55;;;;;;;16.43;10.83;;;;;;;;;;5077016;28;20218;-70
2021/03/09 11:26:22;;;;;;;16.70;11.53;;;;;;;;;;5077565;28;20205;-70
2021/03/09 11:28:50;;;;;;;19.23;11.80;;;;;;;;;;5078629;28;20233;-69
2021/03/09 11:31:17;;;;;;;16.90;11.33;;;;;;;;;;5078146;28;20673;-71
2021/03/09 11:33:44;;;;;;;18.60;11.73;;;;;;;;;;5088899;28;20202;-71
2021/03/09 11:36:12;;;;;;;15.03;10.93;;;;;;;;;;5087506;28;20257;-71
2021/03/09 11:38:40;;;;;;;15.63;9.77;;;;;;;;;;5083319;28;20226;-71
2021/03/09 11:41:07;;;;;;;16.57;11.73;;;;;;;;;;5097418;28;20288;-69
2021/03/09 11:43:34;;;;;;;14.60;10.20;;;;;;;;;;5098692;28;20779;-70
2021/03/09 11:46:01;;;;;;;16.17;10.80;;;;;;;;;;5094131;28;20748;-70
2021/03/09 11:48:29;;;;;;;15.37;9.63;;;;;;;;;;5078349;28;20209;-70
2021/03/09 11:50:56;;;;;;;14.03;10.23;;;;;;;;;;5078126;28;20233;-71
2021/03/09 11:53:23;;;;;;;15.53;10.07;;;;;;;;;;5082997;28;20231;-69
2021/03/09 11:55:51;;;;;;;17.40;11.80;;;;;;;;;;5086916;28;20230;-70
2021/03/09 11:58:18;;;;;;;15.13;10.43;;;;;;;;;;5085691;28;20719;-71
2021/03/09 12:00:46;;;;;;;13.10;9.50;;;;;;;;;;5088987;28;20270;-70
2021/03/09 12:03:13;;;;;;;13.60;9.67;;;;;;;;;;5077783;28;20226;-70
2021/03/09 12:05:40;;;;;;;13.83;10.20;;;;;;;;;;5091854;28;20249;-72
2021/03/09 12:08:07;;;;;;;17.83;10.73;;;;;;;;;;5097708;28;20732;-71
2021/03/09 12:10:34;;;;;;;14.97;10.30;;;;;;;;;;5096368;28;20220;-70
2021/03/09 12:13:03;;;;;;;15.07;9.83;;;;;;;;;;5093751;28;20201;-72
2021/03/09 12:15:30;;;;;;;12.63;9.07;;;;;;;;;;5098222;28;20221;-72
2021/03/09 12:17:57;;;;;;;13.73;9.43;;;;;;;;;;5083923;28;20225;-72
2021/03/09 12:20:24;;;;;;;16.37;9.60;;;;;;;;;;5089408;28;20546;-72
2021/03/09 12:22:51;;;;;;;17.83;9.90;;;;;;;;;;5097648;28;20236;-72
2021/03/09 12:25:18;;;;;;;14.83;10.63;;;;;;;;;;5096838;28;20225;-71
2021/03/09 12:27:45;;;;;;;13.93;9.33;;;;;;;;;;5088255;28;20271;-70
2021/03/09 12:30:14;;;;;;;14.87;9.60;;;;;;;;;;5087222;28;20244;-71
2021/03/09 12:32:41;;;;;;;17.13;9.63;;;;;;;;;;5097809;28;20229;-71
2021/03/09 12:35:09;;;;;;;13.60;9.63;;;;;;;;;;5096323;28;20232;-71
2021/03/09 12:37:36;;;;;;;14.43;9.53;;;;;;;;;;5079926;28;20248;-72
2021/03/09 12:40:04;;;;;;;13.77;9.47;;;;;;;;;;5080359;28;20256;-70
2021/03/09 12:42:31;;;;;;;14.57;9.77;;;;;;;;;;5084641;28;20301;-70
2021/03/09 12:44:58;;;;;;;15.67;10.00;;;;;;;;;;5087167;28;20745;-70
2021/03/09 12:47:26;;;;;;;11.67;8.70;;;;;;;;;;5081063;28;20688;-72
2021/03/09 12:49:53;;;;;;;15.60;9.47;;;;;;;;;;5083406;28;20685;-67
2021/03/09 12:52:21;;;;;;;15.63;9.83;;;;;;;;;;5087760;28;20680;-67
2021/03/09 12:54:48;;;;;;;13.13;8.93;;;;;;;;;;5084851;28;21149;-68
2021/03/09 12:57:15;;;;;;;11.70;8.70;;;;;;;;;;5085937;28;20654;-69
2021/03/09 12:59:42;;;;;;;15.80;9.83;;;;;;;;;;5085341;28;20230;-67
2021/03/09 13:02:10;;;;;;;13.70;8.53;;;;;;;;;;5086466;28;20204;-69
2021/03/09 13:04:38;;;;;;;15.83;9.63;;;;;;;;;;5085796;28;20701;-68
2021/03/09 13:07:05;;;;;;;13.47;8.40;;;;;;;;;;5088127;28;20201;-69
2021/03/09 13:09:32;;;;;;;12.97;8.63;;;;;;;;;;5092024;28;20661;-71
2021/03/09 13:11:59;;;;;;;13.27;8.97;;;;;;;;;;5086315;28;20657;-71
2021/03/09 13:14:26;;;;;;;15.73;9.30;;;;;;;;;;5080555;28;20253;-71
2021/03/09 13:16:53;;;;;;;14.73;9.63;;;;;;;;;;5100659;28;20244;-71
2021/03/09 13:19:22;;;;;;;11.93;8.37;;;;;;;;;;5096872;28;20205;-72
2021/03/09 13:21:50;;;;;;;14.63;9.43;;;;;;;;;;5086971;28;20229;-72
2021/03/09 13:24:17;;;;;;;11.60;8.13;;;;;;;;;;5099488;28;20704;-73
2021/03/09 13:26:52;;;;;;;12.60;8.37;;;;;;;;;;5099232;28;20242;-72
2021/03/09 13:29:20;;;;;;;12.50;7.83;;;;;;;;;;5101050;28;20231;-72
2021/03/09 13:31:47;;;;;;;14.80;8.17;;;;;;;;;;5097231;28;20284;-72
2021/03/09 13:34:14;;;;;;;10.50;7.73;;;;;;;;;;5099834;28;20235;-72
2021/03/09 13:36:41;;;;;;;11.90;8.97;;;;;;;;;;5083746;28;20255;-72
2021/03/09 13:39:09;;;;;;;12.53;8.77;;;;;;;;;;5081885;28;20284;-72
2021/03/09 13:41:36;;;;;;;13.13;8.83;;;;;;;;;;5099637;28;20668;-71
2021/03/09 13:44:03;;;;;;;12.03;7.83;;;;;;;;;;5097682;28;20221;-70
2021/03/09 13:46:30;;;;;;;11.70;7.60;;;;;;;;;;5090383;28;20281;-70
2021/03/09 13:48:57;;;;;;;9.60;7.63;;;;;;;;;;5098819;28;20284;-70
2021/03/09 13:51:25;;;;;;;11.77;7.63;;;;;;;;;;5099891;28;20732;-70
2021/03/09 13:53:52;;;;;;;12.37;8.33;;;;;;;;;;5092873;28;20212;-70
2021/03/09 13:56:20;;;;;;;11.33;7.70;;;;;;;;;;5083235;28;20222;-70
2021/03/09 13:58:47;;;;;;;10.30;7.63;;;;;;;;;;5093063;28;20240;-70
2021/03/09 14:01:14;;;;;;;13.40;7.67;;;;;;;;;;5080219;28;20289;-70
2021/03/09 14:03:42;;;;;;;12.00;7.13;;;;;;;;;;5098167;28;20231;-70
2021/03/09 14:06:09;;;;;;;10.07;7.13;;;;;;;;;;5087035;28;20309;-72
2021/03/09 14:08:37;;;;;;;11.63;6.73;;;;;;;;;;5079534;28;20743;-71
2021/03/09 14:11:04;;;;;;;11.67;7.70;;;;;;;;;;5089359;28;20198;-69
2021/03/09 14:13:32;;;;;;;11.10;6.30;;;;;;;;;;5090184;28;20333;-68
2021/03/09 14:15:59;;;;;;;10.27;6.00;;;;;;;;;;5077734;28;20252;-69
2021/03/09 14:18:27;;;;;;;8.20;5.90;;;;;;;;;;5079665;28;20564;-69
2021/03/09 14:20:54;;;;;;;9.60;6.00;;;;;;;;;;5089488;28;20233;-68
2021/03/09 14:23:21;;;;;;;6.90;5.60;;;;;;;;;;5100215;28;20316;-70
2021/03/09 14:25:48;;;;;;;9.63;6.10;;;;;;;;;;5088115;28;20221;-68
2021/03/09 14:28:15;;;;;;;7.10;5.80;;;;;;;;;;5089802;28;20209;-68
2021/03/09 14:30:43;;;;;;;8.67;6.57;;;;;;;;;;5079746;28;20281;-69
2021/03/09 14:33:10;;;;;;;8.33;5.97;;;;;;;;;;5079806;28;20202;-70